Etusivu
METAR-TAF:

METAR-TAF

Lentoasemat :

Bukarest, Romania

Henri Coandăn lentoasema

Leveyspiiri: 44-33N, Pituuspiiri: 026-06E, korkeus merenpinnasta: 95 m

Tämänhetkinen sää

Tämä raportti tehtiin 38 minuuttia sitten, kello 14.00 UTC
Tuuli 4 kn luoteesta, vaihdellen lännen ja pohjoisen välillä
Lämpötila 32°C
Kosteus 36%
Ilmanpaine 1014 hPa
Näkyvyys 10 km tai enemmän
ei pilviä alle 1500 m:ssä eikä cumulonimbus-pilviä

METAR: LROP 211400Z 31004KT 260V350 CAVOK 32/15 Q1014 NOSIG

Aika: 17:38 (14:38 UTC)

Sääennuste

Tämä raportti tehtiin 3 tuntia ja 38 minuuttia sitten, kello 11.00 UTC
Ennuste voimassa 21. päivästä klo 12 UTC - 22. päivään klo 12 UTC
Tuuli 4 kn eri suunnista
Näkyvyys 10 km tai enemmän
ei pilviä alle 1500 m:ssä eikä cumulonimbus-pilviä
Ajoittain
21. päivästä klo 14 UTC - 21. päivään klo 18 UTC
Hajanaisia pilviä 4000 ft:n korkeudessa, Cumulonimbus.

TAF: LROP 211100Z 2112/2212 VRB04KT CAVOK TEMPO 2114/2118 SCT040CB

Säähavainnot ja -ennusteet yli 4000 lentoasemalta (METAR- ja TAF-raportit).

Käytössä olevat sääasemat on merkitty karttaan keltaisilla ja punaisilla pisteillä.

Aseta hiiri pisteen päälle nähdäksesi sääaseman nimen.

Klikkaa sitten nähdäksesi säähavainnot ja -ennusteet.

Kartan vaihtaminen: klikkaa mustalla rastilla varustettuja vihreitä pisteitä, niin voit zoomata sisään; viivalla varustettua vihreää pistettä, niin voit zoomata ulos tai vihreitä nuolia, niin pääset viereisille kartoille.


METAR-TAF: